Sacramento, California
Traffic Map
Current Weather Conditions
Sacramento, California
Clear
Clear
34°
Feels Like: 34°
Wind Chill: 34° Ceiling: Unl
Heat Index: 34° Visibility: 10mi
Dew Point: 11° Wind: 5mph
Humidity: 24% Direction: 190° (S)
Pressure: 29.93in Gusts: 0mph
Raw Report DataKSAC 280053Z AUTO 19004KT 10SM CLR 34/11 A2993 RMK AO2 SLP134 T03390106 TSNO
Traffic Incident Summary
Active as of:
Severity:
Category:
InformationThere was an issue retrieving the traffic information for this location. Please try a different location or try again shortly.
Advertisements
Track Severe Weather on mobile